sensor_id;sensor_type;location;lat;lon;timestamp;temperature;humidity
7564;DHT22;3823;53.586;10.040;2024-03-02T00:02:01;9.90;1.00
7564;DHT22;3823;53.586;10.040;2024-03-02T00:04:27;9.90;1.00
7564;DHT22;3823;53.586;10.040;2024-03-02T00:06:53;9.80;1.00
7564;DHT22;3823;53.586;10.040;2024-03-02T00:09:20;9.80;1.00
7564;DHT22;3823;53.586;10.040;2024-03-02T00:11:46;9.80;1.00
7564;DHT22;3823;53.586;10.040;2024-03-02T00:14:12;9.80;1.00
7564;DHT22;3823;53.586;10.040;2024-03-02T00:16:37;9.70;1.00
7564;DHT22;3823;53.586;10.040;2024-03-02T00:19:05;9.70;1.00
7564;DHT22;3823;53.586;10.040;2024-03-02T00:21:31;9.70;1.00
7564;DHT22;3823;53.586;10.040;2024-03-02T00:23:58;9.60;1.00
7564;DHT22;3823;53.586;10.040;2024-03-02T00:26:23;9.70;1.00
7564;DHT22;3823;53.586;10.040;2024-03-02T00:28:49;9.60;1.00
7564;DHT22;3823;53.586;10.040;2024-03-02T00:31:16;9.60;1.00
7564;DHT22;3823;53.586;10.040;2024-03-02T00:33:46;9.60;1.00
7564;DHT22;3823;53.586;10.040;2024-03-02T00:36:14;9.60;1.00
7564;DHT22;3823;53.586;10.040;2024-03-02T00:38:49;9.60;1.00
7564;DHT22;3823;53.586;10.040;2024-03-02T00:41:31;9.50;1.00
7564;DHT22;3823;53.586;10.040;2024-03-02T00:46:33;9.50;1.00
7564;DHT22;3823;53.586;10.040;2024-03-02T00:49:17;9.40;1.00
7564;DHT22;3823;53.586;10.040;2024-03-02T00:51:50;9.40;1.00
7564;DHT22;3823;53.586;10.040;2024-03-02T00:54:20;9.40;1.00
7564;DHT22;3823;53.586;10.040;2024-03-02T00:56:47;9.30;1.00
7564;DHT22;3823;53.586;10.040;2024-03-02T00:59:13;9.30;1.00
7564;DHT22;3823;53.586;10.040;2024-03-02T01:01:39;9.30;1.00
7564;DHT22;3823;53.586;10.040;2024-03-02T01:04:04;9.30;1.00
7564;DHT22;3823;53.586;10.040;2024-03-02T01:06:30;9.30;1.00
7564;DHT22;3823;53.586;10.040;2024-03-02T01:08:56;9.20;1.00
7564;DHT22;3823;53.586;10.040;2024-03-02T01:11:22;9.20;1.00
7564;DHT22;3823;53.586;10.040;2024-03-02T01:13:47;9.20;1.00
7564;DHT22;3823;53.586;10.040;2024-03-02T01:16:13;9.20;1.00
7564;DHT22;3823;53.586;10.040;2024-03-02T01:18:39;9.20;1.00
7564;DHT22;3823;53.586;10.040;2024-03-02T01:21:05;9.30;1.00
7564;DHT22;3823;53.586;10.040;2024-03-02T01:23:30;9.20;1.00
7564;DHT22;3823;53.586;10.040;2024-03-02T01:25:56;9.30;1.00
7564;DHT22;3823;53.586;10.040;2024-03-02T01:28:21;9.20;1.00
7564;DHT22;3823;53.586;10.040;2024-03-02T01:30:47;9.20;1.00
7564;DHT22;3823;53.586;10.040;2024-03-02T01:33:13;9.20;1.00
7564;DHT22;3823;53.586;10.040;2024-03-02T01:35:39;9.20;1.00
7564;DHT22;3823;53.586;10.040;2024-03-02T01:38:05;9.30;1.00
7564;DHT22;3823;53.586;10.040;2024-03-02T01:40:37;9.20;1.00
7564;DHT22;3823;53.586;10.040;2024-03-02T01:43:06;9.20;1.00
7564;DHT22;3823;53.586;10.040;2024-03-02T01:45:33;9.10;1.00
7564;DHT22;3823;53.586;10.040;2024-03-02T01:47:58;9.10;1.00
7564;DHT22;3823;53.586;10.040;2024-03-02T01:50:29;9.20;1.00
7564;DHT22;3823;53.586;10.040;2024-03-02T01:52:56;9.20;1.00
7564;DHT22;3823;53.586;10.040;2024-03-02T01:55:22;9.20;1.00
7564;DHT22;3823;53.586;10.040;2024-03-02T01:57:49;9.30;1.00
7564;DHT22;3823;53.586;10.040;2024-03-02T02:00:16;9.30;1.00
7564;DHT22;3823;53.586;10.040;2024-03-02T02:02:42;9.30;1.00
7564;DHT22;3823;53.586;10.040;2024-03-02T02:05:07;9.40;1.00
7564;DHT22;3823;53.586;10.040;2024-03-02T02:07:33;9.30;1.00
7564;DHT22;3823;53.586;10.040;2024-03-02T02:10:00;9.20;1.00
7564;DHT22;3823;53.586;10.040;2024-03-02T02:12:26;9.20;1.00
7564;DHT22;3823;53.586;10.040;2024-03-02T02:14:52;9.20;1.00
7564;DHT22;3823;53.586;10.040;2024-03-02T02:17:17;9.20;1.00
7564;DHT22;3823;53.586;10.040;2024-03-02T02:19:43;9.10;3.10
7564;DHT22;3823;53.586;10.040;2024-03-02T02:22:10;9.10;4.70
7564;DHT22;3823;53.586;10.040;2024-03-02T02:24:35;9.10;7.70
7564;DHT22;3823;53.586;10.040;2024-03-02T02:27:01;9.10;7.70
7564;DHT22;3823;53.586;10.040;2024-03-02T02:29:27;9.00;7.50
7564;DHT22;3823;53.586;10.040;2024-03-02T02:31:52;9.00;11.50
7564;DHT22;3823;53.586;10.040;2024-03-02T02:34:18;8.90;17.60
7564;DHT22;3823;53.586;10.040;2024-03-02T02:36:44;8.90;16.70
7564;DHT22;3823;53.586;10.040;2024-03-02T02:39:12;8.90;20.90
7564;DHT22;3823;53.586;10.040;2024-03-02T02:41:39;8.80;21.00
7564;DHT22;3823;53.586;10.040;2024-03-02T02:44:05;8.90;21.70
7564;DHT22;3823;53.586;10.040;2024-03-02T02:46:30;8.90;19.40
7564;DHT22;3823;53.586;10.040;2024-03-02T02:48:56;8.80;11.30
7564;DHT22;3823;53.586;10.040;2024-03-02T02:51:21;8.80;14.50
7564;DHT22;3823;53.586;10.040;2024-03-02T02:53:47;8.90;13.70
7564;DHT22;3823;53.586;10.040;2024-03-02T02:56:13;8.90;13.20
7564;DHT22;3823;53.586;10.040;2024-03-02T02:58:40;8.90;7.70
7564;DHT22;3823;53.586;10.040;2024-03-02T03:01:06;8.90;4.00
7564;DHT22;3823;53.586;10.040;2024-03-02T03:03:33;8.90;4.10
7564;DHT22;3823;53.586;10.040;2024-03-02T03:05:58;9.00;1.60
7564;DHT22;3823;53.586;10.040;2024-03-02T03:08:24;9.00;1.00
7564;DHT22;3823;53.586;10.040;2024-03-02T03:10:49;9.00;1.00
7564;DHT22;3823;53.586;10.040;2024-03-02T03:13:15;9.00;1.00
7564;DHT22;3823;53.586;10.040;2024-03-02T03:15:41;9.00;1.00
7564;DHT22;3823;53.586;10.040;2024-03-02T03:18:06;8.90;1.00
7564;DHT22;3823;53.586;10.040;2024-03-02T03:20:36;9.00;1.00
7564;DHT22;3823;53.586;10.040;2024-03-02T03:23:01;9.00;1.00
7564;DHT22;3823;53.586;10.040;2024-03-02T03:25:27;8.90;1.00
7564;DHT22;3823;53.586;10.040;2024-03-02T03:27:52;8.90;1.00
7564;DHT22;3823;53.586;10.040;2024-03-02T03:30:18;8.80;1.00
7564;DHT22;3823;53.586;10.040;2024-03-02T03:32:44;8.80;1.00
7564;DHT22;3823;53.586;10.040;2024-03-02T03:35:09;8.90;1.00
7564;DHT22;3823;53.586;10.040;2024-03-02T03:37:35;8.80;1.00
7564;DHT22;3823;53.586;10.040;2024-03-02T03:40:04;8.80;1.00
7564;DHT22;3823;53.586;10.040;2024-03-02T03:42:38;8.90;1.00
7564;DHT22;3823;53.586;10.040;2024-03-02T03:45:05;8.90;1.00
7564;DHT22;3823;53.586;10.040;2024-03-02T03:47:34;8.90;1.00
7564;DHT22;3823;53.586;10.040;2024-03-02T03:49:59;8.80;1.00
7564;DHT22;3823;53.586;10.040;2024-03-02T03:52:25;8.90;1.00
7564;DHT22;3823;53.586;10.040;2024-03-02T03:54:51;8.90;1.00
7564;DHT22;3823;53.586;10.040;2024-03-02T03:57:17;8.90;1.00
7564;DHT22;3823;53.586;10.040;2024-03-02T03:59:42;8.90;1.00
7564;DHT22;3823;53.586;10.040;2024-03-02T04:02:08;9.00;1.00
7564;DHT22;3823;53.586;10.040;2024-03-02T04:04:34;9.00;1.00
7564;DHT22;3823;53.586;10.040;2024-03-02T04:07:00;9.00;1.00
7564;DHT22;3823;53.586;10.040;2024-03-02T04:09:26;8.90;1.00
7564;DHT22;3823;53.586;10.040;2024-03-02T04:11:52;8.90;1.00
7564;DHT22;3823;53.586;10.040;2024-03-02T04:14:18;8.90;1.00
7564;DHT22;3823;53.586;10.040;2024-03-02T04:16:43;8.80;1.00
7564;DHT22;3823;53.586;10.040;2024-03-02T04:19:09;8.90;1.00
7564;DHT22;3823;53.586;10.040;2024-03-02T04:21:34;8.90;1.00
7564;DHT22;3823;53.586;10.040;2024-03-02T04:24:00;8.90;1.00
7564;DHT22;3823;53.586;10.040;2024-03-02T04:26:26;8.90;1.00
7564;DHT22;3823;53.586;10.040;2024-03-02T04:28:52;8.80;1.00
7564;DHT22;3823;53.586;10.040;2024-03-02T04:31:18;8.80;1.00
7564;DHT22;3823;53.586;10.040;2024-03-02T04:33:43;8.80;1.00
7564;DHT22;3823;53.586;10.040;2024-03-02T04:36:09;8.80;1.00
7564;DHT22;3823;53.586;10.040;2024-03-02T04:38:35;8.80;1.00
7564;DHT22;3823;53.586;10.040;2024-03-02T04:41:01;8.80;1.00
7564;DHT22;3823;53.586;10.040;2024-03-02T04:43:27;8.80;1.00
7564;DHT22;3823;53.586;10.040;2024-03-02T04:45:52;8.80;1.00
7564;DHT22;3823;53.586;10.040;2024-03-02T04:48:18;8.80;1.00
7564;DHT22;3823;53.586;10.040;2024-03-02T04:50:44;8.90;1.00
7564;DHT22;3823;53.586;10.040;2024-03-02T04:53:10;8.90;1.00
7564;DHT22;3823;53.586;10.040;2024-03-02T04:55:35;8.90;1.00
7564;DHT22;3823;53.586;10.040;2024-03-02T04:58:07;8.90;1.00
7564;DHT22;3823;53.586;10.040;2024-03-02T05:00:33;8.90;1.00
7564;DHT22;3823;53.586;10.040;2024-03-02T05:02:59;8.90;1.00
7564;DHT22;3823;53.586;10.040;2024-03-02T05:05:24;9.00;1.00
7564;DHT22;3823;53.586;10.040;2024-03-02T05:07:50;8.90;1.00
7564;DHT22;3823;53.586;10.040;2024-03-02T05:10:16;8.90;1.00
7564;DHT22;3823;53.586;10.040;2024-03-02T05:12:42;8.80;1.00
7564;DHT22;3823;53.586;10.040;2024-03-02T05:15:08;8.80;1.00
7564;DHT22;3823;53.586;10.040;2024-03-02T05:17:35;8.70;1.00
7564;DHT22;3823;53.586;10.040;2024-03-02T05:20:01;8.70;1.00
7564;DHT22;3823;53.586;10.040;2024-03-02T05:22:27;8.70;1.00
7564;DHT22;3823;53.586;10.040;2024-03-02T05:24:52;8.60;1.00
7564;DHT22;3823;53.586;10.040;2024-03-02T05:27:18;8.60;1.00
7564;DHT22;3823;53.586;10.040;2024-03-02T05:29:43;8.60;1.00
7564;DHT22;3823;53.586;10.040;2024-03-02T05:32:09;8.50;1.00
7564;DHT22;3823;53.586;10.040;2024-03-02T05:34:35;8.50;1.00
7564;DHT22;3823;53.586;10.040;2024-03-02T05:37:01;8.50;1.00
7564;DHT22;3823;53.586;10.040;2024-03-02T05:39:27;8.50;1.00
7564;DHT22;3823;53.586;10.040;2024-03-02T05:41:52;8.50;1.00
7564;DHT22;3823;53.586;10.040;2024-03-02T05:44:18;8.50;1.00
7564;DHT22;3823;53.586;10.040;2024-03-02T05:46:44;8.50;1.00
7564;DHT22;3823;53.586;10.040;2024-03-02T05:49:10;8.50;1.00
7564;DHT22;3823;53.586;10.040;2024-03-02T05:51:35;8.50;1.00
7564;DHT22;3823;53.586;10.040;2024-03-02T05:54:01;8.50;1.00
7564;DHT22;3823;53.586;10.040;2024-03-02T05:56:27;8.40;1.00
7564;DHT22;3823;53.586;10.040;2024-03-02T05:58:52;8.40;1.00
7564;DHT22;3823;53.586;10.040;2024-03-02T06:01:33;8.50;1.00
7564;DHT22;3823;53.586;10.040;2024-03-02T06:03:58;8.50;1.00
7564;DHT22;3823;53.586;10.040;2024-03-02T06:06:24;8.50;1.00
7564;DHT22;3823;53.586;10.040;2024-03-02T06:08:50;8.50;1.00
7564;DHT22;3823;53.586;10.040;2024-03-02T06:11:16;8.50;1.00
7564;DHT22;3823;53.586;10.040;2024-03-02T06:13:42;8.50;1.00
7564;DHT22;3823;53.586;10.040;2024-03-02T06:16:07;8.60;1.00
7564;DHT22;3823;53.586;10.040;2024-03-02T06:18:34;8.60;1.00
7564;DHT22;3823;53.586;10.040;2024-03-02T06:20:59;8.60;1.00
7564;DHT22;3823;53.586;10.040;2024-03-02T06:23:26;8.50;1.00
7564;DHT22;3823;53.586;10.040;2024-03-02T06:25:52;8.50;1.00
7564;DHT22;3823;53.586;10.040;2024-03-02T06:28:17;8.50;1.00
7564;DHT22;3823;53.586;10.040;2024-03-02T06:30:43;8.50;1.00
7564;DHT22;3823;53.586;10.040;2024-03-02T06:33:09;8.50;1.00
7564;DHT22;3823;53.586;10.040;2024-03-02T06:35:35;8.50;1.00
7564;DHT22;3823;53.586;10.040;2024-03-02T06:38:01;8.50;1.00
7564;DHT22;3823;53.586;10.040;2024-03-02T06:40:27;8.50;1.00
7564;DHT22;3823;53.586;10.040;2024-03-02T06:42:52;8.40;1.00
7564;DHT22;3823;53.586;10.040;2024-03-02T06:45:18;8.50;1.00
7564;DHT22;3823;53.586;10.040;2024-03-02T06:47:44;8.40;1.00
7564;DHT22;3823;53.586;10.040;2024-03-02T06:50:09;8.40;1.00
7564;DHT22;3823;53.586;10.040;2024-03-02T06:52:35;8.40;1.00
7564;DHT22;3823;53.586;10.040;2024-03-02T06:55:01;8.40;1.00
7564;DHT22;3823;53.586;10.040;2024-03-02T06:57:27;8.40;1.00
7564;DHT22;3823;53.586;10.040;2024-03-02T06:59:52;8.40;1.00
7564;DHT22;3823;53.586;10.040;2024-03-02T07:02:20;8.50;1.00
7564;DHT22;3823;53.586;10.040;2024-03-02T07:04:46;8.40;1.00
7564;DHT22;3823;53.586;10.040;2024-03-02T07:07:12;8.50;1.00
7564;DHT22;3823;53.586;10.040;2024-03-02T07:09:39;8.50;1.00
7564;DHT22;3823;53.586;10.040;2024-03-02T07:12:05;8.50;1.00
7564;DHT22;3823;53.586;10.040;2024-03-02T07:14:30;8.50;1.00
7564;DHT22;3823;53.586;10.040;2024-03-02T07:17:15;8.60;1.00
7564;DHT22;3823;53.586;10.040;2024-03-02T07:19:40;8.60;1.00
7564;DHT22;3823;53.586;10.040;2024-03-02T07:22:06;8.70;1.00
7564;DHT22;3823;53.586;10.040;2024-03-02T07:24:42;8.80;1.00
7564;DHT22;3823;53.586;10.040;2024-03-02T07:27:12;8.80;1.00
7564;DHT22;3823;53.586;10.040;2024-03-02T07:29:38;8.80;1.00
7564;DHT22;3823;53.586;10.040;2024-03-02T07:32:04;8.90;1.00
7564;DHT22;3823;53.586;10.040;2024-03-02T07:34:30;9.00;1.00
7564;DHT22;3823;53.586;10.040;2024-03-02T07:36:56;9.00;1.00
7564;DHT22;3823;53.586;10.040;2024-03-02T07:39:22;9.00;1.00
7564;DHT22;3823;53.586;10.040;2024-03-02T07:41:48;9.00;1.00
7564;DHT22;3823;53.586;10.040;2024-03-02T07:44:13;8.90;1.00
7564;DHT22;3823;53.586;10.040;2024-03-02T07:46:43;8.90;1.00
7564;DHT22;3823;53.586;10.040;2024-03-02T07:49:09;8.90;1.00
7564;DHT22;3823;53.586;10.040;2024-03-02T07:51:35;8.90;1.00
7564;DHT22;3823;53.586;10.040;2024-03-02T07:54:00;9.00;1.00
7564;DHT22;3823;53.586;10.040;2024-03-02T07:56:26;9.00;1.00
7564;DHT22;3823;53.586;10.040;2024-03-02T07:58:52;9.10;1.00
7564;DHT22;3823;53.586;10.040;2024-03-02T08:01:18;9.20;1.00
7564;DHT22;3823;53.586;10.040;2024-03-02T08:03:43;9.20;1.00
7564;DHT22;3823;53.586;10.040;2024-03-02T08:06:17;9.10;1.00
7564;DHT22;3823;53.586;10.040;2024-03-02T08:08:42;9.20;1.00
7564;DHT22;3823;53.586;10.040;2024-03-02T08:11:08;9.20;1.00
7564;DHT22;3823;53.586;10.040;2024-03-02T08:13:33;9.30;1.00
7564;DHT22;3823;53.586;10.040;2024-03-02T08:15:59;9.40;1.00
7564;DHT22;3823;53.586;10.040;2024-03-02T08:18:25;9.40;1.00
7564;DHT22;3823;53.586;10.040;2024-03-02T08:20:50;9.40;1.00
7564;DHT22;3823;53.586;10.040;2024-03-02T08:23:16;9.40;1.00
7564;DHT22;3823;53.586;10.040;2024-03-02T08:25:42;9.40;1.00
7564;DHT22;3823;53.586;10.040;2024-03-02T08:28:08;9.40;1.00
7564;DHT22;3823;53.586;10.040;2024-03-02T08:30:33;9.30;1.00
7564;DHT22;3823;53.586;10.040;2024-03-02T08:32:59;9.30;1.00
7564;DHT22;3823;53.586;10.040;2024-03-02T08:35:25;9.40;1.00
7564;DHT22;3823;53.586;10.040;2024-03-02T08:37:51;9.30;1.00
7564;DHT22;3823;53.586;10.040;2024-03-02T08:40:27;9.30;1.00
7564;DHT22;3823;53.586;10.040;2024-03-02T08:42:52;9.30;1.00
7564;DHT22;3823;53.586;10.040;2024-03-02T08:45:18;9.30;1.00
7564;DHT22;3823;53.586;10.040;2024-03-02T08:47:46;9.30;1.00
7564;DHT22;3823;53.586;10.040;2024-03-02T08:50:12;9.40;1.00
7564;DHT22;3823;53.586;10.040;2024-03-02T08:52:37;9.50;1.00
7564;DHT22;3823;53.586;10.040;2024-03-02T08:55:03;9.50;1.00
7564;DHT22;3823;53.586;10.040;2024-03-02T08:57:28;9.60;1.00
7564;DHT22;3823;53.586;10.040;2024-03-02T08:59:54;9.70;1.00
7564;DHT22;3823;53.586;10.040;2024-03-02T09:02:20;9.70;1.00
7564;DHT22;3823;53.586;10.040;2024-03-02T09:04:45;9.50;1.00
7564;DHT22;3823;53.586;10.040;2024-03-02T09:07:11;9.50;1.00
7564;DHT22;3823;53.586;10.040;2024-03-02T09:09:36;9.60;1.00
7564;DHT22;3823;53.586;10.040;2024-03-02T09:12:04;9.70;1.00
7564;DHT22;3823;53.586;10.040;2024-03-02T09:14:30;9.70;1.00
7564;DHT22;3823;53.586;10.040;2024-03-02T09:16:55;9.90;1.00
7564;DHT22;3823;53.586;10.040;2024-03-02T09:19:21;10.00;1.00
7564;DHT22;3823;53.586;10.040;2024-03-02T09:21:46;10.20;1.00
7564;DHT22;3823;53.586;10.040;2024-03-02T09:24:12;10.30;1.00
7564;DHT22;3823;53.586;10.040;2024-03-02T09:26:38;10.50;1.00
7564;DHT22;3823;53.586;10.040;2024-03-02T09:29:03;10.80;1.00
7564;DHT22;3823;53.586;10.040;2024-03-02T09:31:29;10.90;99.90
7564;DHT22;3823;53.586;10.040;2024-03-02T09:33:55;10.80;99.90
7564;DHT22;3823;53.586;10.040;2024-03-02T09:36:22;10.80;99.90
7564;DHT22;3823;53.586;10.040;2024-03-02T09:38:48;10.80;99.90
7564;DHT22;3823;53.586;10.040;2024-03-02T09:41:14;11.00;99.90
7564;DHT22;3823;53.586;10.040;2024-03-02T09:43:40;11.10;99.90
7564;DHT22;3823;53.586;10.040;2024-03-02T09:46:09;11.30;99.90
7564;DHT22;3823;53.586;10.040;2024-03-02T09:48:34;11.40;99.90
7564;DHT22;3823;53.586;10.040;2024-03-02T09:51:01;11.50;99.90
7564;DHT22;3823;53.586;10.040;2024-03-02T09:53:32;11.80;99.90
7564;DHT22;3823;53.586;10.040;2024-03-02T09:55:59;12.00;99.90
7564;DHT22;3823;53.586;10.040;2024-03-02T09:58:25;12.20;99.90
7564;DHT22;3823;53.586;10.040;2024-03-02T10:00:50;12.50;40.00
7564;DHT22;3823;53.586;10.040;2024-03-02T10:03:18;12.30;1.30
7564;DHT22;3823;53.586;10.040;2024-03-02T10:05:44;12.20;75.90
7564;DHT22;3823;53.586;10.040;2024-03-02T10:08:09;12.50;1.00
7564;DHT22;3823;53.586;10.040;2024-03-02T10:10:39;12.60;1.00
7564;DHT22;3823;53.586;10.040;2024-03-02T10:13:12;12.60;1.00
7564;DHT22;3823;53.586;10.040;2024-03-02T10:15:39;13.00;1.00
7564;DHT22;3823;53.586;10.040;2024-03-02T10:18:11;12.90;1.00
7564;DHT22;3823;53.586;10.040;2024-03-02T10:20:37;12.90;1.00
7564;DHT22;3823;53.586;10.040;2024-03-02T10:23:14;13.10;1.00
7564;DHT22;3823;53.586;10.040;2024-03-02T10:25:40;12.90;1.00
7564;DHT22;3823;53.586;10.040;2024-03-02T10:28:06;13.00;1.00
7564;DHT22;3823;53.586;10.040;2024-03-02T10:30:35;12.80;1.00
7564;DHT22;3823;53.586;10.040;2024-03-02T10:33:02;12.70;1.00
7564;DHT22;3823;53.586;10.040;2024-03-02T10:35:28;12.80;1.00
7564;DHT22;3823;53.586;10.040;2024-03-02T10:37:54;12.90;1.00
7564;DHT22;3823;53.586;10.040;2024-03-02T10:40:23;12.90;1.00
7564;DHT22;3823;53.586;10.040;2024-03-02T10:42:50;13.00;1.00
7564;DHT22;3823;53.586;10.040;2024-03-02T10:45:17;12.80;1.00
7564;DHT22;3823;53.586;10.040;2024-03-02T10:47:45;12.70;1.00
7564;DHT22;3823;53.586;10.040;2024-03-02T10:50:12;12.60;1.00
7564;DHT22;3823;53.586;10.040;2024-03-02T10:52:38;12.40;1.00
7564;DHT22;3823;53.586;10.040;2024-03-02T10:55:08;12.50;1.00
7564;DHT22;3823;53.586;10.040;2024-03-02T10:57:42;12.50;1.00
7564;DHT22;3823;53.586;10.040;2024-03-02T11:00:12;12.60;1.00
7564;DHT22;3823;53.586;10.040;2024-03-02T11:02:52;12.40;1.00
7564;DHT22;3823;53.586;10.040;2024-03-02T11:05:29;12.40;1.00
7564;DHT22;3823;53.586;10.040;2024-03-02T11:08:07;12.30;1.00
7564;DHT22;3823;53.586;10.040;2024-03-02T11:10:35;12.50;1.00
7564;DHT22;3823;53.586;10.040;2024-03-02T11:13:05;12.40;1.00
7564;DHT22;3823;53.586;10.040;2024-03-02T11:15:31;12.60;1.00
7564;DHT22;3823;53.586;10.040;2024-03-02T11:18:00;12.60;1.00
7564;DHT22;3823;53.586;10.040;2024-03-02T11:20:26;12.60;1.00
7564;DHT22;3823;53.586;10.040;2024-03-02T11:22:52;12.60;1.00
7564;DHT22;3823;53.586;10.040;2024-03-02T11:25:27;12.70;1.00
7564;DHT22;3823;53.586;10.040;2024-03-02T11:33:00;12.80;1.00
7564;DHT22;3823;53.586;10.040;2024-03-02T11:35:28;12.70;1.00
7564;DHT22;3823;53.586;10.040;2024-03-02T11:37:54;12.90;1.00
7564;DHT22;3823;53.586;10.040;2024-03-02T11:40:24;13.00;1.00
7564;DHT22;3823;53.586;10.040;2024-03-02T11:42:50;12.90;1.00
7564;DHT22;3823;53.586;10.040;2024-03-02T11:45:17;13.00;1.00
7564;DHT22;3823;53.586;10.040;2024-03-02T11:47:51;12.90;1.00
7564;DHT22;3823;53.586;10.040;2024-03-02T11:50:40;12.90;1.00
7564;DHT22;3823;53.586;10.040;2024-03-02T11:53:08;12.80;1.00
7564;DHT22;3823;53.586;10.040;2024-03-02T11:55:38;12.90;1.00
7564;DHT22;3823;53.586;10.040;2024-03-02T11:58:05;12.90;1.00
7564;DHT22;3823;53.586;10.040;2024-03-02T12:00:31;12.90;1.00
7564;DHT22;3823;53.586;10.040;2024-03-02T12:03:01;12.90;1.00
7564;DHT22;3823;53.586;10.040;2024-03-02T12:05:28;12.90;1.00
7564;DHT22;3823;53.586;10.040;2024-03-02T12:08:01;12.90;1.00
7564;DHT22;3823;53.586;10.040;2024-03-02T12:10:27;12.80;1.00
7564;DHT22;3823;53.586;10.040;2024-03-02T12:13:01;12.80;1.00
7564;DHT22;3823;53.586;10.040;2024-03-02T12:15:31;12.90;1.00
7564;DHT22;3823;53.586;10.040;2024-03-02T12:17:58;12.90;1.00
7564;DHT22;3823;53.586;10.040;2024-03-02T12:20:26;13.00;1.00
7564;DHT22;3823;53.586;10.040;2024-03-02T12:22:53;13.10;1.00
7564;DHT22;3823;53.586;10.040;2024-03-02T12:25:20;13.10;1.00
7564;DHT22;3823;53.586;10.040;2024-03-02T12:27:49;13.20;1.00
7564;DHT22;3823;53.586;10.040;2024-03-02T12:30:19;13.30;1.00
7564;DHT22;3823;53.586;10.040;2024-03-02T12:32:47;13.30;1.00
7564;DHT22;3823;53.586;10.040;2024-03-02T12:35:13;13.30;1.00
7564;DHT22;3823;53.586;10.040;2024-03-02T12:37:47;13.20;1.00
7564;DHT22;3823;53.586;10.040;2024-03-02T12:40:13;13.10;1.00
7564;DHT22;3823;53.586;10.040;2024-03-02T12:42:40;13.10;1.00
7564;DHT22;3823;53.586;10.040;2024-03-02T12:45:07;13.10;1.00
7564;DHT22;3823;53.586;10.040;2024-03-02T12:47:37;13.10;1.00
7564;DHT22;3823;53.586;10.040;2024-03-02T12:50:04;13.20;1.00
7564;DHT22;3823;53.586;10.040;2024-03-02T12:52:30;13.30;1.00
7564;DHT22;3823;53.586;10.040;2024-03-02T12:55:01;13.40;1.00
7564;DHT22;3823;53.586;10.040;2024-03-02T12:57:29;13.20;1.00
7564;DHT22;3823;53.586;10.040;2024-03-02T13:00:02;13.10;1.00
7564;DHT22;3823;53.586;10.040;2024-03-02T13:02:41;13.10;1.00
7564;DHT22;3823;53.586;10.040;2024-03-02T13:05:07;13.00;1.00
7564;DHT22;3823;53.586;10.040;2024-03-02T13:07:37;13.10;1.00
7564;DHT22;3823;53.586;10.040;2024-03-02T13:10:02;13.10;1.00
7564;DHT22;3823;53.586;10.040;2024-03-02T13:12:30;13.20;1.00
7564;DHT22;3823;53.586;10.040;2024-03-02T13:14:58;13.10;1.00
7564;DHT22;3823;53.586;10.040;2024-03-02T13:17:28;13.10;1.00
7564;DHT22;3823;53.586;10.040;2024-03-02T13:19:57;13.00;1.00
7564;DHT22;3823;53.586;10.040;2024-03-02T13:22:27;13.00;1.00
7564;DHT22;3823;53.586;10.040;2024-03-02T13:24:53;12.90;1.00
7564;DHT22;3823;53.586;10.040;2024-03-02T13:27:20;12.90;1.00
7564;DHT22;3823;53.586;10.040;2024-03-02T13:29:46;13.00;1.00
7564;DHT22;3823;53.586;10.040;2024-03-02T13:32:13;13.00;1.00
7564;DHT22;3823;53.586;10.040;2024-03-02T13:34:39;13.20;1.00
7564;DHT22;3823;53.586;10.040;2024-03-02T13:37:05;13.30;1.00
7564;DHT22;3823;53.586;10.040;2024-03-02T13:39:31;13.20;1.00
7564;DHT22;3823;53.586;10.040;2024-03-02T13:42:00;13.30;1.00
7564;DHT22;3823;53.586;10.040;2024-03-02T13:44:31;13.20;1.00
7564;DHT22;3823;53.586;10.040;2024-03-02T13:46:58;13.20;1.00
7564;DHT22;3823;53.586;10.040;2024-03-02T13:49:24;13.00;1.00
7564;DHT22;3823;53.586;10.040;2024-03-02T13:51:49;13.00;1.00
7564;DHT22;3823;53.586;10.040;2024-03-02T13:54:15;12.90;1.00
7564;DHT22;3823;53.586;10.040;2024-03-02T13:56:41;13.00;1.00
7564;DHT22;3823;53.586;10.040;2024-03-02T13:59:07;13.00;1.00
7564;DHT22;3823;53.586;10.040;2024-03-02T14:01:33;13.10;1.00
7564;DHT22;3823;53.586;10.040;2024-03-02T14:03:59;13.10;1.00
7564;DHT22;3823;53.586;10.040;2024-03-02T14:06:25;13.10;1.00
7564;DHT22;3823;53.586;10.040;2024-03-02T14:08:52;13.00;1.00
7564;DHT22;3823;53.586;10.040;2024-03-02T14:11:18;13.10;1.00
7564;DHT22;3823;53.586;10.040;2024-03-02T14:13:44;13.30;1.00
7564;DHT22;3823;53.586;10.040;2024-03-02T14:16:15;13.40;1.00
7564;DHT22;3823;53.586;10.040;2024-03-02T14:18:41;13.30;1.00
7564;DHT22;3823;53.586;10.040;2024-03-02T14:21:08;13.40;1.00
7564;DHT22;3823;53.586;10.040;2024-03-02T14:23:33;13.30;1.00
7564;DHT22;3823;53.586;10.040;2024-03-02T14:25:59;13.40;1.00
7564;DHT22;3823;53.586;10.040;2024-03-02T14:28:24;13.30;1.00
7564;DHT22;3823;53.586;10.040;2024-03-02T14:30:50;13.30;1.00
7564;DHT22;3823;53.586;10.040;2024-03-02T14:33:16;13.20;1.00
7564;DHT22;3823;53.586;10.040;2024-03-02T14:35:42;13.20;1.00
7564;DHT22;3823;53.586;10.040;2024-03-02T14:38:08;13.20;1.00
7564;DHT22;3823;53.586;10.040;2024-03-02T14:40:33;13.20;1.00
7564;DHT22;3823;53.586;10.040;2024-03-02T14:42:59;13.30;1.00
7564;DHT22;3823;53.586;10.040;2024-03-02T14:45:24;13.30;1.00
7564;DHT22;3823;53.586;10.040;2024-03-02T14:47:50;13.30;1.00
7564;DHT22;3823;53.586;10.040;2024-03-02T14:50:17;13.40;1.00
7564;DHT22;3823;53.586;10.040;2024-03-02T14:52:44;13.40;1.00
7564;DHT22;3823;53.586;10.040;2024-03-02T14:55:10;13.30;1.00
7564;DHT22;3823;53.586;10.040;2024-03-02T14:57:36;13.30;1.00
7564;DHT22;3823;53.586;10.040;2024-03-02T15:00:01;13.30;1.00
7564;DHT22;3823;53.586;10.040;2024-03-02T15:02:28;13.30;1.00
7564;DHT22;3823;53.586;10.040;2024-03-02T15:04:54;13.30;1.00
7564;DHT22;3823;53.586;10.040;2024-03-02T15:07:20;13.30;1.00
7564;DHT22;3823;53.586;10.040;2024-03-02T15:09:45;13.30;1.00
7564;DHT22;3823;53.586;10.040;2024-03-02T15:12:11;13.30;1.00
7564;DHT22;3823;53.586;10.040;2024-03-02T15:14:38;13.30;1.00
7564;DHT22;3823;53.586;10.040;2024-03-02T15:17:13;13.40;1.00
7564;DHT22;3823;53.586;10.040;2024-03-02T15:19:43;13.40;1.00
7564;DHT22;3823;53.586;10.040;2024-03-02T15:22:09;13.30;1.00
7564;DHT22;3823;53.586;10.040;2024-03-02T15:24:35;13.30;1.00
7564;DHT22;3823;53.586;10.040;2024-03-02T15:27:01;13.20;1.00
7564;DHT22;3823;53.586;10.040;2024-03-02T15:29:30;13.20;1.00
7564;DHT22;3823;53.586;10.040;2024-03-02T15:31:59;13.20;1.00
7564;DHT22;3823;53.586;10.040;2024-03-02T15:34:25;13.20;1.00
7564;DHT22;3823;53.586;10.040;2024-03-02T15:36:51;13.20;1.00
7564;DHT22;3823;53.586;10.040;2024-03-02T15:39:16;13.10;1.00
7564;DHT22;3823;53.586;10.040;2024-03-02T15:41:46;13.10;1.00
7564;DHT22;3823;53.586;10.040;2024-03-02T15:44:12;13.00;1.00
7564;DHT22;3823;53.586;10.040;2024-03-02T15:46:38;13.00;1.00
7564;DHT22;3823;53.586;10.040;2024-03-02T15:49:03;12.90;1.00
7564;DHT22;3823;53.586;10.040;2024-03-02T15:51:31;12.90;1.00
7564;DHT22;3823;53.586;10.040;2024-03-02T15:53:58;12.90;1.00
7564;DHT22;3823;53.586;10.040;2024-03-02T15:56:24;12.90;1.00
7564;DHT22;3823;53.586;10.040;2024-03-02T15:58:50;12.80;1.00
7564;DHT22;3823;53.586;10.040;2024-03-02T16:01:19;12.80;1.00
7564;DHT22;3823;53.586;10.040;2024-03-02T16:03:45;12.80;1.00
7564;DHT22;3823;53.586;10.040;2024-03-02T16:06:11;12.80;1.00
7564;DHT22;3823;53.586;10.040;2024-03-02T16:08:37;12.80;1.00
7564;DHT22;3823;53.586;10.040;2024-03-02T16:11:03;12.80;1.00
7564;DHT22;3823;53.586;10.040;2024-03-02T16:13:29;12.80;1.00
7564;DHT22;3823;53.586;10.040;2024-03-02T16:15:56;12.70;1.00